Terminal Aerodrome Forecast
Issued by NWS Amarillo, TX

Home | Current Version | Previous Version | Text Only | Print | Product List | Glossary Off
Versions: 1 2 3 4 5 6 7 8 9 10 11 12 13 14 15 16 17 18 19 20 21 22 23 24 25 26 27 28 29 30 31 32

446
FTUS44 KAMA 180200 AAI
TAFAMA
TAF AMD
KAMA 180200Z 1802/1824 26016KT P6SM SKC WS020/33050KT
     FM180500 29013KT P6SM SKC
     FM181000 31007KT P6SM SKC=

USA.gov is the U.S. government's official web portal to all federal, state and local government web resources and services.